Terminal Aerodrome Forecast
Issued by NWS Wichita, KS

Home | Current Version | Previous Version | Text Only | Print | Product List | Glossary On
Versions: 1 2 3 4 5 6 7 8 9 10 11 12 13 14 15 16 17 18
000
FTUS43 KICT 231700
TAFICT
TAF
KICT 231720Z 2318/2418 17018G28KT P6SM SCT150
     FM240000 17013KT P6SM SCT060 BKN150
     FM240800 17012KT P6SM VCTS SCT030 BKN070CB
     FM241500 17015G24KT P6SM SCT040 BKN100=

USA.gov is the U.S. government's official web portal to all federal, state and local government web resources and services.